Overview Statistics Trail Chart Weather Telemetry Raw packets
 

This is the latest recevied weather packets stored in our database for station/object N1JOV-7. If no packets are shown the sender has not sent any weather packets the latest 10 day(s).

<< 28 29 30 31 32 33 34 >>
Time Temp. Humidity Pressure Rain* Wind** Luminosity Snow
1788202261 25° C 43% 1018.8 hPa 0 mm - - -
1788201661 25.56° C 43% 1018.9 hPa 0 mm - - -
1788201061 25.56° C 43% 1018.9 hPa 0 mm - - -
1788200462 25° C 45% 1019 hPa 0 mm - - -
1788199862 25° C 45% 1019.1 hPa 0 mm - - -
1788199262 25° C 46% 1019.2 hPa 0 mm - - -
1788198662 25° C 46% 1019.3 hPa 0 mm - - -
1788198062 24.44° C 48% 1019.6 hPa 0 mm - - -
1788197461 23.89° C 47% 1019.6 hPa 0 mm - - -
1788196861 24.44° C 48% 1019.7 hPa 0 mm - - -
1788196261 23.33° C 48% 1019.8 hPa 0 mm - - -
1788195661 24.44° C 48% 1019.8 hPa 0 mm - - -
1788195061 23.33° C 50% 1019.9 hPa 0 mm - - -
1788194461 22.78° C 51% 1020.1 hPa 0 mm - - -
1788193862 22.78° C 51% 1020.3 hPa 0 mm - - -
1788193262 22.22° C 51% 1020.4 hPa 0 mm - - -
1788192662 22.78° C 51% 1020.4 hPa 0 mm - - -
1788192062 22.78° C 51% 1020.5 hPa 0 mm - - -
1788191462 22.22° C 54% 1020.7 hPa 0 mm - - -
1788190862 21.11° C 55% 1020.7 hPa 0 mm - - -
1788190261 21.11° C 55% 1020.9 hPa 0 mm - - -
1788189661 22.22° C 55% 1020.7 hPa 0 mm - - -
1788189061 21.67° C 56% 1020.8 hPa 0 mm - - -
1788188461 20.56° C 59% 1021.1 hPa 0 mm - - -
1788187861 21.11° C 57% 1021.1 hPa 0 mm - - -

* Rain latest hour (hover to see other rain measurements)
** Current wind speed in m/s (hover to see current wind gust speed)